Time;durP1;ratioP1;P1;durP2;ratioP2;P2;SDS_P1;SDS_P2;PMS_P1;PMS_P2;Temp;Humidity;BMP_temperature;BMP_pressure;BME280_temperature;BME280_humidity;BME280_pressure;Samples;Min_cycle;Max_cycle;Signal;HPM_P1;HPM_P2
2023/10/03 00:01:01;;;;;;;48.50;19.90;;;19.80;99.90;;;;;;5073823;28;20103;-73
2023/10/03 00:03:27;;;;;;;45.63;19.33;;;19.80;99.90;;;;;;5066951;28;20020;-73
2023/10/03 00:05:54;;;;;;;47.83;19.60;;;19.80;99.90;;;;;;5073364;28;20050;-72
2023/10/03 00:08:20;;;;;;;47.10;19.42;;;19.80;99.90;;;;;;5073735;28;20024;-73
2023/10/03 00:10:46;;;;;;;49.58;20.08;;;19.80;99.90;;;;;;5073580;28;20013;-73
2023/10/03 00:13:12;;;;;;;47.55;19.30;;;19.90;99.90;;;;;;5072579;28;20078;-72
2023/10/03 00:15:43;;;;;;;54.15;20.45;;;19.80;99.90;;;;;;5062401;28;20458;-73
2023/10/03 00:18:10;;;;;;;51.20;20.75;;;19.90;99.90;;;;;;5072422;28;20016;-72
2023/10/03 00:20:36;;;;;;;48.55;19.85;;;19.80;99.90;;;;;;5072973;28;20028;-73
2023/10/03 00:23:02;;;;;;;50.08;19.27;;;19.80;99.90;;;;;;5073435;28;20024;-72
2023/10/03 00:25:28;;;;;;;45.30;19.15;;;19.80;99.90;;;;;;5073085;28;20371;-72
2023/10/03 00:27:59;;;;;;;47.60;19.85;;;19.70;99.90;;;;;;5073191;28;20025;-72
2023/10/03 00:30:25;;;;;;;49.30;20.13;;;19.70;99.90;;;;;;5072179;28;20100;-72
2023/10/03 00:32:52;;;;;;;50.13;20.48;;;19.70;99.90;;;;;;5068860;28;20051;-72
2023/10/03 00:35:20;;;;;;;41.65;17.77;;;19.70;99.90;;;;;;5073189;28;20115;-72
2023/10/03 00:37:46;;;;;;;44.80;19.45;;;19.70;99.90;;;;;;5073563;28;20020;-72
2023/10/03 00:40:27;;;;;;;49.30;19.00;;;19.70;99.90;;;;;;5073157;28;20021;-71
2023/10/03 00:42:59;;;;;;;43.75;18.58;;;19.70;99.90;;;;;;5072842;28;20021;-71
2023/10/03 00:45:29;;;;;;;45.28;18.85;;;19.70;99.90;;;;;;5070085;28;20377;-71
2023/10/03 00:48:02;;;;;;;52.15;19.63;;;19.70;99.90;;;;;;5071241;28;20028;-71
2023/10/03 00:50:34;;;;;;;45.05;18.27;;;19.60;99.90;;;;;;5072987;28;20040;-71
2023/10/03 00:53:04;;;;;;;46.35;18.02;;;19.60;99.90;;;;;;5069099;28;20033;-71
2023/10/03 00:55:32;;;;;;;44.25;18.02;;;19.60;99.90;;;;;;5072911;28;20073;-71
2023/10/03 00:58:17;;;;;;;45.28;17.92;;;19.60;99.90;;;;;;5072683;28;20024;-71
2023/10/03 01:00:49;;;;;;;46.53;18.57;;;19.60;99.90;;;;;;5063746;28;20480;-71
2023/10/03 01:03:37;;;;;;;45.85;18.65;;;19.70;99.90;;;;;;5072880;28;20086;-71
2023/10/03 01:06:09;;;;;;;45.33;17.77;;;19.70;99.90;;;;;;5072589;28;20080;-71
2023/10/03 01:08:36;;;;;;;45.42;19.35;;;19.70;99.90;;;;;;5072643;28;20070;-71
2023/10/03 01:11:04;;;;;;;48.75;18.63;;;19.70;99.90;;;;;;5073040;28;20112;-71
2023/10/03 01:13:30;;;;;;;49.05;19.00;;;19.70;99.90;;;;;;5065698;28;20087;-71
2023/10/03 01:15:56;;;;;;;45.88;18.60;;;19.70;99.90;;;;;;5072552;28;20128;-71
2023/10/03 01:18:23;;;;;;;47.05;18.50;;;19.70;99.90;;;;;;5072869;28;20470;-71
2023/10/03 01:20:55;;;;;;;44.35;17.95;;;19.80;99.90;;;;;;5072752;28;20012;-71
2023/10/03 01:23:21;;;;;;;43.63;18.40;;;19.80;99.90;;;;;;5071139;28;20081;-71
2023/10/03 01:25:48;;;;;;;45.50;17.88;;;19.80;99.90;;;;;;5072049;28;20493;-72
2023/10/03 01:28:15;;;;;;;45.85;17.98;;;19.80;99.90;;;;;;5072584;28;20058;-71
2023/10/03 01:30:41;;;;;;;45.47;17.85;;;19.80;99.90;;;;;;5070331;28;20040;-71
2023/10/03 01:33:08;;;;;;;47.50;18.48;;;19.80;99.90;;;;;;5072271;28;20024;-71
2023/10/03 01:35:35;;;;;;;41.17;18.17;;;19.80;99.90;;;;;;5067054;28;20025;-71
2023/10/03 01:38:00;;;;;;;42.42;17.77;;;19.80;99.90;;;;;;5072888;28;20032;-71
2023/10/03 01:40:26;;;;;;;38.78;16.85;;;19.80;99.90;;;;;;5071905;28;20024;-71
2023/10/03 01:42:52;;;;;;;42.05;16.90;;;19.90;99.90;;;;;;5072156;28;20427;-71
2023/10/03 01:45:18;;;;;;;44.10;16.95;;;19.90;99.90;;;;;;5071761;28;20033;-72
2023/10/03 01:47:51;;;;;;;44.80;17.38;;;20.00;99.90;;;;;;5071898;28;20031;-71
2023/10/03 01:50:21;;;;;;;38.28;15.15;;;20.10;99.90;;;;;;5068620;28;20031;-71
2023/10/03 01:52:48;;;;;;;42.78;16.02;;;20.20;99.90;;;;;;5063423;28;20479;-71
2023/10/03 01:55:17;;;;;;;41.35;16.23;;;20.30;99.90;;;;;;5066689;28;20021;-71
2023/10/03 01:57:44;;;;;;;39.95;16.23;;;20.40;99.90;;;;;;5066737;28;20024;-72
2023/10/03 02:00:28;;;;;;;42.63;15.95;;;20.50;99.90;;;;;;5059091;28;20107;-71
2023/10/03 02:03:04;;;;;;;42.58;16.30;;;20.50;99.90;;;;;;5071353;28;20070;-72
2023/10/03 02:05:31;;;;;;;38.38;15.27;;;20.60;99.90;;;;;;5064336;28;20040;-72
2023/10/03 02:08:04;;;;;;;38.28;15.27;;;20.60;99.90;;;;;;5071571;28;20028;-72
2023/10/03 02:10:32;;;;;;;35.42;14.77;;;20.60;99.90;;;;;;5071940;28;20020;-71
2023/10/03 02:12:58;;;;;;;39.05;16.00;;;20.60;99.90;;;;;;5071759;28;20083;-71
2023/10/03 02:15:27;;;;;;;38.88;15.48;;;20.60;99.90;;;;;;5061223;28;20488;-72
2023/10/03 02:17:54;;;;;;;38.22;15.55;;;20.50;99.90;;;;;;5068209;28;20082;-71
2023/10/03 02:20:24;;;;;;;39.33;14.57;;;20.50;99.90;;;;;;5071426;28;20116;-71
2023/10/03 02:22:56;;;;;;;36.00;15.38;;;20.50;99.90;;;;;;5071225;28;20033;-71
2023/10/03 02:25:26;;;;;;;36.63;14.80;;;20.50;99.90;;;;;;5065815;28;20029;-71
2023/10/03 02:27:55;;;;;;;34.80;14.48;;;20.50;99.90;;;;;;5086944;28;20463;-71
2023/10/03 02:30:29;;;;;;;33.70;13.77;;;20.40;99.90;;;;;;5071456;28;20471;-71
2023/10/03 02:32:57;;;;;;;33.25;13.77;;;20.50;99.90;;;;;;5071241;28;20031;-71
2023/10/03 02:35:24;;;;;;;33.60;13.85;;;20.40;99.90;;;;;;5061187;28;20142;-71
2023/10/03 02:37:52;;;;;;;29.85;13.02;;;20.40;99.90;;;;;;5071499;28;20406;-71
2023/10/03 02:40:22;;;;;;;32.80;11.43;;;20.40;99.90;;;;;;5070966;28;20075;-71
2023/10/03 02:42:50;;;;;;;26.92;11.32;;;20.40;99.90;;;;;;5061306;28;20025;-71
2023/10/03 02:45:17;;;;;;;25.63;10.27;;;20.40;99.90;;;;;;5058161;28;20029;-71
2023/10/03 02:47:43;;;;;;;28.00;10.40;;;20.40;99.90;;;;;;5069884;28;20043;-71
2023/10/03 02:50:12;;;;;;;24.35;9.90;;;20.40;99.90;;;;;;5070921;28;20379;-71
2023/10/03 02:52:39;;;;;;;25.08;9.20;;;20.40;99.90;;;;;;5070958;28;20120;-71
2023/10/03 02:55:08;;;;;;;31.25;8.23;;;20.40;99.90;;;;;;5071273;28;20103;-71
2023/10/03 02:57:35;;;;;;;26.70;8.05;;;20.40;99.90;;;;;;5071240;28;20024;-71
2023/10/03 03:00:05;;;;;;;24.42;7.38;;;20.30;99.90;;;;;;5071201;28;20029;-71
2023/10/03 03:02:31;;;;;;;29.65;7.68;;;20.30;99.90;;;;;;5071405;28;20086;-71
2023/10/03 03:04:59;;;;;;;25.45;8.30;;;20.20;99.90;;;;;;5066356;28;20037;-71
2023/10/03 03:07:27;;;;;;;28.27;8.18;;;20.10;99.90;;;;;;5063073;28;20460;-71
2023/10/03 03:09:56;;;;;;;30.95;8.38;;;20.10;99.90;;;;;;5074957;28;20024;-71
2023/10/03 03:12:22;;;;;;;30.35;8.20;;;20.00;99.90;;;;;;5075022;28;20024;-71
2023/10/03 03:14:48;;;;;;;27.20;8.45;;;20.00;99.90;;;;;;5074720;28;20032;-71
2023/10/03 03:17:14;;;;;;;36.38;8.10;;;19.90;99.90;;;;;;5075376;28;20047;-71
2023/10/03 03:19:40;;;;;;;32.92;8.80;;;19.80;99.90;;;;;;5074925;28;20398;-71
2023/10/03 03:22:06;;;;;;;29.45;7.90;;;19.70;99.90;;;;;;5074796;28;20499;-71
2023/10/03 03:24:34;;;;;;;37.05;9.30;;;19.60;99.90;;;;;;5074698;28;20044;-71
2023/10/03 03:27:00;;;;;;;34.38;8.52;;;19.50;99.90;;;;;;5064319;28;20079;-71
2023/10/03 03:29:35;;;;;;;37.35;8.98;;;19.40;99.90;;;;;;5070586;28;20040;-71
2023/10/03 03:32:03;;;;;;;33.83;7.65;;;19.40;99.90;;;;;;5074672;28;20028;-71
2023/10/03 03:34:30;;;;;;;35.60;8.60;;;19.30;99.90;;;;;;5074096;28;20029;-71
2023/10/03 03:37:14;;;;;;;46.33;8.85;;;19.30;99.90;;;;;;5074958;28;20024;-72
2023/10/03 03:39:52;;;;;;;34.53;8.48;;;19.20;99.90;;;;;;5070090;28;20036;-71
2023/10/03 03:42:17;;;;;;;39.58;9.10;;;19.20;99.90;;;;;;5074385;28;20502;-72
2023/10/03 03:44:43;;;;;;;36.20;8.65;;;19.20;99.90;;;;;;5074131;28;20016;-71
2023/10/03 03:47:10;;;;;;;37.80;8.55;;;19.20;99.90;;;;;;5074026;28;20570;-72
2023/10/03 03:49:36;;;;;;;32.28;8.80;;;19.10;99.90;;;;;;5074569;28;20107;-71
2023/10/03 03:52:01;;;;;;;30.63;9.15;;;19.10;99.90;;;;;;5074162;28;20016;-71
2023/10/03 03:54:27;;;;;;;36.67;8.95;;;19.10;99.90;;;;;;5074087;28;20028;-71
2023/10/03 03:56:53;;;;;;;32.90;8.38;;;19.10;99.90;;;;;;5074184;28;20379;-71
2023/10/03 03:59:18;;;;;;;34.90;8.55;;;19.10;99.90;;;;;;5073929;28;20036;-71
2023/10/03 04:01:44;;;;;;;32.03;7.75;;;19.10;99.90;;;;;;5073961;28;20024;-71
2023/10/03 04:04:12;;;;;;;34.22;8.95;;;19.10;99.90;;;;;;5073517;28;20104;-71
2023/10/03 04:06:38;;;;;;;28.90;8.70;;;19.00;99.90;;;;;;5073868;28;20052;-71
2023/10/03 04:09:07;;;;;;;26.50;8.25;;;19.10;99.90;;;;;;5074020;28;20036;-71
2023/10/03 04:11:33;;;;;;;38.72;9.82;;;19.00;99.90;;;;;;5066557;28;20111;-71
2023/10/03 04:13:59;;;;;;;27.73;7.88;;;19.00;99.90;;;;;;5073752;28;20111;-71
2023/10/03 04:16:28;;;;;;;30.17;8.02;;;19.00;99.90;;;;;;5073761;28;20040;-71
2023/10/03 04:18:54;;;;;;;27.55;8.25;;;19.00;99.90;;;;;;5069927;28;20044;-71
2023/10/03 04:21:20;;;;;;;30.50;8.40;;;19.00;99.90;;;;;;5073432;28;20031;-72
2023/10/03 04:23:47;;;;;;;30.45;8.13;;;18.90;99.90;;;;;;5073983;28;20013;-71
2023/10/03 04:26:13;;;;;;;22.88;7.72;;;18.90;99.90;;;;;;5073026;28;20535;-71
2023/10/03 04:28:39;;;;;;;25.13;7.18;;;18.90;99.90;;;;;;5073359;28;20063;-71
2023/10/03 04:31:06;;;;;;;23.05;7.20;;;18.90;99.90;;;;;;5073391;28;20023;-71
2023/10/03 04:33:32;;;;;;;21.58;7.15;;;18.90;99.90;;;;;;5073574;28;20021;-71
2023/10/03 04:36:03;;;;;;;18.58;6.22;;;18.90;99.90;;;;;;5073590;28;20107;-71
2023/10/03 04:38:29;;;;;;;20.88;6.50;;;18.90;99.90;;;;;;5070646;28;20025;-71
2023/10/03 04:40:54;;;;;;;22.38;6.07;;;18.90;99.90;;;;;;5073215;28;20032;-71
2023/10/03 04:43:21;;;;;;;19.50;5.47;;;18.90;99.90;;;;;;5072658;28;20028;-71
2023/10/03 04:45:47;;;;;;;20.23;5.60;;;18.90;99.90;;;;;;5071872;28;20039;-71
2023/10/03 04:48:13;;;;;;;18.20;5.68;;;18.90;99.90;;;;;;5070550;28;20027;-71
2023/10/03 04:50:40;;;;;;;17.88;5.00;;;18.90;99.90;;;;;;5072382;28;20048;-71
2023/10/03 04:53:11;;;;;;;16.55;5.10;;;18.90;99.90;;;;;;5073001;28;20051;-71
2023/10/03 04:55:36;;;;;;;17.58;5.22;;;18.90;99.90;;;;;;5064075;28;20029;-71
2023/10/03 04:58:02;;;;;;;17.20;5.63;;;18.90;99.90;;;;;;5059675;28;20502;-72
2023/10/03 05:00:28;;;;;;;14.35;5.57;;;18.90;99.90;;;;;;5072719;28;20020;-71
2023/10/03 05:02:54;;;;;;;15.63;5.43;;;18.90;99.90;;;;;;5088044;28;20097;-72
2023/10/03 05:05:25;;;;;;;20.98;6.15;;;18.90;99.90;;;;;;5072323;28;20437;-71
2023/10/03 05:07:58;;;;;;;22.02;5.80;;;18.90;99.90;;;;;;5072576;28;20029;-71
2023/10/03 05:10:25;;;;;;;23.55;6.18;;;18.90;99.90;;;;;;5065874;28;20024;-71
2023/10/03 05:12:52;;;;;;;25.08;6.18;;;18.90;99.90;;;;;;5071089;28;20104;-71
2023/10/03 05:15:19;;;;;;;20.55;6.13;;;18.90;99.90;;;;;;5072740;28;20638;-71
2023/10/03 05:17:46;;;;;;;21.27;5.63;;;18.90;99.90;;;;;;5072892;28;20021;-71
2023/10/03 05:20:15;;;;;;;20.60;6.25;;;18.90;99.90;;;;;;5071926;28;20028;-71
2023/10/03 05:22:42;;;;;;;20.00;5.45;;;18.90;99.90;;;;;;5072152;28;20122;-71
2023/10/03 05:25:11;;;;;;;21.08;5.88;;;18.90;99.90;;;;;;5071496;28;20028;-71
2023/10/03 05:27:41;;;;;;;17.65;5.95;;;18.90;99.90;;;;;;5071673;28;20036;-71
2023/10/03 05:30:08;;;;;;;18.85;5.80;;;18.90;99.90;;;;;;5071455;28;20036;-71
2023/10/03 05:32:35;;;;;;;17.48;5.93;;;18.90;99.90;;;;;;5066553;28;20085;-71
2023/10/03 05:35:01;;;;;;;24.40;5.10;;;18.90;99.90;;;;;;5071496;28;20031;-71
2023/10/03 05:37:27;;;;;;;19.85;4.60;;;18.90;99.90;;;;;;5071149;28;20100;-71
2023/10/03 05:39:53;;;;;;;15.10;4.80;;;18.90;99.90;;;;;;5069297;28;20124;-71
2023/10/03 05:42:19;;;;;;;20.27;4.20;;;18.90;99.90;;;;;;5071936;28;20550;-71
2023/10/03 05:44:46;;;;;;;14.07;3.22;;;18.80;99.90;;;;;;5067722;28;20402;-71
2023/10/03 05:47:12;;;;;;;15.73;4.10;;;18.80;99.90;;;;;;5067307;28;20031;-71
2023/10/03 05:49:38;;;;;;;19.67;3.72;;;18.70;99.90;;;;;;5068690;28;20037;-71
2023/10/03 05:52:06;;;;;;;15.30;3.42;;;18.70;99.90;;;;;;5071667;28;20648;-72
2023/10/03 05:54:32;;;;;;;10.07;2.75;;;18.70;99.90;;;;;;5065224;28;20016;-72
2023/10/03 05:56:58;;;;;;;15.45;2.85;;;18.70;99.90;;;;;;5064806;28;20029;-72
2023/10/03 05:59:24;;;;;;;12.70;3.10;;;18.60;99.90;;;;;;5070251;28;20052;-74
2023/10/03 06:01:50;;;;;;;8.63;2.72;;;18.60;99.90;;;;;;5070308;28;20028;-72
2023/10/03 06:04:16;;;;;;;10.48;2.70;;;18.60;99.90;;;;;;5070853;28;20063;-71
2023/10/03 06:06:43;;;;;;;11.77;2.80;;;18.60;99.90;;;;;;5070517;28;20048;-72
2023/10/03 06:09:10;;;;;;;11.05;2.60;;;18.50;99.90;;;;;;5069376;28;20024;-72
2023/10/03 06:11:39;;;;;;;8.00;2.70;;;18.50;99.90;;;;;;5070354;28;20055;-72
2023/10/03 06:14:05;;;;;;;10.73;2.65;;;18.50;99.90;;;;;;5063785;28;20033;-72
2023/10/03 06:16:31;;;;;;;13.27;2.90;;;18.50;99.90;;;;;;5069534;28;20013;-72
2023/10/03 06:18:57;;;;;;;10.48;3.05;;;18.50;99.90;;;;;;5069700;28;20044;-72
2023/10/03 06:21:24;;;;;;;14.50;2.72;;;18.40;99.90;;;;;;5066647;28;20021;-72
2023/10/03 06:23:50;;;;;;;9.05;2.97;;;18.50;99.90;;;;;;5070068;28;20021;-72
2023/10/03 06:26:18;;;;;;;12.07;2.60;;;18.40;99.90;;;;;;5070043;28;20027;-72
2023/10/03 06:28:45;;;;;;;11.35;2.75;;;18.40;99.90;;;;;;5055703;28;20027;-71
2023/10/03 06:31:11;;;;;;;17.55;3.78;;;18.40;99.90;;;;;;5068352;28;20090;-72
2023/10/03 06:33:37;;;;;;;8.85;2.65;;;18.40;99.90;;;;;;5071079;28;20539;-72
2023/10/03 06:36:06;;;;;;;13.90;2.90;;;18.40;99.90;;;;;;5071249;28;20099;-72
2023/10/03 06:38:32;;;;;;;14.80;3.22;;;18.30;99.90;;;;;;5062959;28;20103;-72
2023/10/03 06:40:58;;;;;;;10.98;2.92;;;18.20;99.90;;;;;;5071145;28;20056;-73
2023/10/03 06:43:23;;;;;;;14.95;2.78;;;18.20;99.90;;;;;;5067091;28;20486;-73
2023/10/03 06:45:49;;;;;;;19.08;3.30;;;18.20;99.90;;;;;;5069441;28;20069;-72
2023/10/03 06:48:14;;;;;;;9.90;2.90;;;18.10;99.90;;;;;;5071066;28;20679;-71
2023/10/03 06:50:42;;;;;;;13.30;2.53;;;18.00;99.90;;;;;;5069495;28;20044;-71
2023/10/03 06:53:09;;;;;;;18.38;3.00;;;17.90;99.90;;;;;;5071092;28;20032;-71
2023/10/03 06:55:35;;;;;;;9.70;2.50;;;17.90;99.90;;;;;;5071313;28;20170;-71
2023/10/03 06:58:02;;;;;;;9.75;2.10;;;17.80;99.90;;;;;;5071011;28;20031;-71
2023/10/03 07:00:30;;;;;;;12.65;2.15;;;17.80;99.90;;;;;;5062143;28;20040;-71
2023/10/03 07:02:56;;;;;;;10.43;2.10;;;17.70;99.90;;;;;;5067620;28;20401;-71
2023/10/03 07:05:22;;;;;;;8.57;1.75;;;17.50;99.90;;;;;;5070924;28;20047;-72
2023/10/03 07:07:47;;;;;;;9.70;1.60;;;17.50;99.90;;;;;;5070585;28;20020;-71
2023/10/03 07:10:13;;;;;;;11.98;2.33;;;17.40;99.90;;;;;;5068730;28;20028;-71
2023/10/03 07:12:39;;;;;;;7.68;1.65;;;17.30;99.90;;;;;;5069929;28;20070;-71
2023/10/03 07:15:08;;;;;;;8.50;1.67;;;17.30;99.90;;;;;;5070727;28;20024;-71
2023/10/03 07:17:35;;;;;;;8.95;1.52;;;17.30;99.90;;;;;;5069799;28;20067;-71
2023/10/03 07:20:04;;;;;;;7.63;1.50;;;17.30;99.90;;;;;;5070633;28;20040;-72
2023/10/03 07:22:30;;;;;;;10.95;1.60;;;17.20;99.90;;;;;;5067160;28;20479;-71
2023/10/03 07:24:56;;;;;;;9.52;1.75;;;17.20;99.90;;;;;;5066790;28;20023;-72
2023/10/03 07:27:21;;;;;;;7.35;1.63;;;17.20;99.90;;;;;;5064025;28;20020;-72
2023/10/03 07:29:47;;;;;;;8.25;1.55;;;17.20;99.90;;;;;;5069132;28;20029;-72
2023/10/03 07:32:14;;;;;;;10.43;1.60;;;17.20;99.90;;;;;;5070161;28;20025;-71
2023/10/03 07:34:45;;;;;;;10.63;1.77;;;17.20;99.90;;;;;;5069912;28;20035;-72
2023/10/03 07:37:11;;;;;;;14.20;2.30;;;17.10;99.90;;;;;;5059884;28;20052;-74
2023/10/03 07:39:38;;;;;;;11.68;2.03;;;17.10;99.90;;;;;;5070421;28;20111;-72
2023/10/03 07:42:05;;;;;;;10.20;1.70;;;17.10;99.90;;;;;;5070393;28;20020;-72
2023/10/03 07:44:31;;;;;;;9.07;2.10;;;17.10;99.90;;;;;;5070486;28;20013;-73
2023/10/03 07:46:57;;;;;;;9.38;1.80;;;17.10;99.90;;;;;;5069805;28;20472;-72
2023/10/03 07:49:23;;;;;;;12.88;1.95;;;17.10;99.90;;;;;;5070734;28;20017;-73
2023/10/03 07:51:59;;;;;;;11.70;1.70;;;17.10;99.90;;;;;;5068966;28;20565;-72
2023/10/03 07:54:31;;;;;;;10.05;1.95;;;17.10;99.90;;;;;;5072281;28;20620;-72
2023/10/03 07:57:04;;;;;;;13.23;1.58;;;17.10;99.90;;;;;;5060620;28;20025;-72
2023/10/03 07:59:30;;;;;;;5.95;1.30;;;17.10;99.90;;;;;;5073970;28;20128;-71
2023/10/03 08:01:57;;;;;;;8.02;1.30;;;17.10;99.90;;;;;;5073523;28;20048;-71
2023/10/03 08:04:24;;;;;;;8.77;1.48;;;17.10;99.90;;;;;;5072588;28;20028;-71
2023/10/03 08:06:49;;;;;;;9.25;1.25;;;17.10;99.90;;;;;;5073775;28;20044;-72
2023/10/03 08:09:16;;;;;;;10.40;1.52;;;17.00;99.90;;;;;;5073686;28;20031;-72
2023/10/03 08:11:46;;;;;;;5.03;1.05;;;17.10;99.90;;;;;;5073063;28;20048;-72
2023/10/03 08:14:13;;;;;;;10.40;1.75;;;17.00;99.90;;;;;;5073291;28;20434;-71
2023/10/03 08:16:44;;;;;;;6.78;1.15;;;17.00;99.90;;;;;;5073294;28;20021;-71
2023/10/03 08:19:21;;;;;;;10.52;1.80;;;16.90;99.90;;;;;;5087778;28;20036;-73
2023/10/03 08:21:52;;;;;;;8.00;1.52;;;17.00;99.90;;;;;;5071510;28;20490;-71
2023/10/03 08:24:24;;;;;;;10.65;1.33;;;17.00;99.90;;;;;;5070897;28;20028;-71
2023/10/03 08:26:53;;;;;;;7.05;1.60;;;17.00;99.90;;;;;;5069566;28;20028;-71
2023/10/03 08:29:21;;;;;;;6.38;1.27;;;17.00;99.90;;;;;;5070008;28;20439;-71
2023/10/03 08:31:57;;;;;;;8.82;1.40;;;17.00;99.90;;;;;;5073394;28;20063;-71
2023/10/03 08:34:30;;;;;;;9.20;1.30;;;17.00;99.90;;;;;;5072287;28;20089;-71
2023/10/03 08:36:59;;;;;;;6.32;1.27;;;17.00;99.90;;;;;;5064932;28;20040;-71
2023/10/03 08:39:26;;;;;;;7.70;1.30;;;17.10;99.90;;;;;;5072573;28;20036;-71
2023/10/03 08:42:12;;;;;;;5.22;1.20;;;17.00;99.90;;;;;;5073198;28;20032;-71
2023/10/03 08:44:53;;;;;;;12.13;1.65;;;17.10;99.90;;;;;;5069915;28;20036;-71
2023/10/03 08:47:28;;;;;;;7.53;1.25;;;17.00;99.90;;;;;;5073188;28;20017;-71
2023/10/03 08:50:14;;;;;;;6.75;1.50;;;16.90;99.90;;;;;;5072972;28;20127;-71
2023/10/03 08:52:49;;;;;;;9.60;1.42;;;16.80;99.90;;;;;;5073071;28;20040;-71
2023/10/03 08:55:19;;;;;;;8.38;1.23;;;16.80;99.90;;;;;;5068172;28;20013;-71
2023/10/03 08:57:49;;;;;;;5.80;1.10;;;16.70;99.90;;;;;;5064399;28;20024;-71
2023/10/03 09:00:25;;;;;;;6.88;0.90;;;16.70;99.90;;;;;;5069511;28;20391;-71
2023/10/03 09:03:09;;;;;;;3.15;0.90;;;16.70;99.90;;;;;;5071789;28;20483;-71
2023/10/03 09:05:39;;;;;;;6.35;1.02;;;16.80;99.90;;;;;;5070328;28;20040;-72
2023/10/03 09:08:08;;;;;;;9.20;1.45;;;16.80;99.90;;;;;;5066824;28;20111;-72
2023/10/03 09:10:34;;;;;;;4.03;1.08;;;16.70;99.90;;;;;;5071493;28;20028;-72
2023/10/03 09:13:06;;;;;;;5.10;1.25;;;16.70;99.90;;;;;;5071335;28;20021;-73
2023/10/03 09:15:42;;;;;;;9.02;1.05;;;16.60;99.90;;;;;;5063389;28;20020;-72
2023/10/03 09:18:10;;;;;;;7.80;1.13;;;16.50;99.90;;;;;;5085729;28;20028;-72
2023/10/03 09:20:37;;;;;;;5.10;1.10;;;16.40;99.90;;;;;;5067080;28;20533;-72
2023/10/03 09:23:07;;;;;;;11.02;1.40;;;16.30;99.90;;;;;;5071114;28;20020;-72
2023/10/03 09:25:38;;;;;;;7.32;1.17;;;16.30;99.90;;;;;;5071036;28;20033;-72
2023/10/03 09:28:07;;;;;;;5.40;1.13;;;16.20;99.90;;;;;;5071112;28;20107;-72
2023/10/03 09:30:40;;;;;;;5.57;1.00;;;16.20;99.90;;;;;;5070804;28;20328;-72
2023/10/03 09:33:11;;;;;;;3.10;1.00;;;16.30;99.90;;;;;;5070967;28;20035;-72
2023/10/03 09:35:39;;;;;;;8.57;1.20;;;16.30;99.90;;;;;;5070784;28;20691;-72
2023/10/03 09:38:09;;;;;;;6.30;1.17;;;16.30;99.90;;;;;;5070921;28;20387;-72
2023/10/03 09:40:51;;;;;;;6.65;1.33;;;16.30;99.90;;;;;;5059703;28;20024;-71
2023/10/03 09:43:27;;;;;;;9.30;1.08;;;16.40;99.90;;;;;;5068785;28;20037;-72
2023/10/03 09:45:56;;;;;;;5.82;1.27;;;16.40;99.90;;;;;;5059811;28;20100;-72
2023/10/03 09:48:24;;;;;;;8.05;1.45;;;16.30;99.90;;;;;;5070486;28;20032;-72
2023/10/03 09:50:53;;;;;;;8.68;1.85;;;16.30;99.90;;;;;;5070925;28;20033;-72
2023/10/03 09:53:25;;;;;;;9.13;1.65;;;16.30;99.90;;;;;;5070849;28;20023;-72
2023/10/03 09:55:50;;;;;;;9.68;1.92;;;16.30;99.90;;;;;;5069927;28;20024;-72
2023/10/03 09:58:24;;;;;;;9.43;2.20;;;16.20;99.90;;;;;;5069936;28;20032;-72
2023/10/03 10:00:53;;;;;;;8.23;1.80;;;16.20;99.90;;;;;;5070595;28;20032;-72
2023/10/03 10:03:28;;;;;;;10.32;2.05;;;16.20;99.90;;;;;;5070642;28;20104;-72
2023/10/03 10:06:14;;;;;;;9.50;2.40;;;16.30;99.90;;;;;;5069811;28;20044;-72
2023/10/03 10:09:01;;;;;;;10.25;2.15;;;16.30;99.90;;;;;;5067095;28;20052;-72
2023/10/03 10:11:27;;;;;;;12.93;2.72;;;16.30;99.90;;;;;;5070545;28;20073;-72
2023/10/03 10:14:16;;;;;;;16.33;3.10;;;16.30;99.90;;;;;;5070083;28;20107;-71
2023/10/03 10:17:03;;;;;;;17.00;3.45;;;16.30;99.90;;;;;;5070181;28;20029;-72
2023/10/03 10:20:12;;;;;;;11.90;2.83;;;16.40;99.90;;;;;;5062035;28;20021;-72
2023/10/03 10:22:57;;;;;;;16.20;3.00;;;16.40;99.90;;;;;;5063556;28;20045;-72
2023/10/03 10:25:27;;;;;;;11.95;3.10;;;16.40;99.90;;;;;;5069842;28;20020;-72
2023/10/03 10:28:07;;;;;;;10.55;3.05;;;16.40;99.90;;;;;;5070485;28;20025;-72
2023/10/03 10:30:39;;;;;;;16.38;3.45;;;16.40;99.90;;;;;;5070076;28;20029;-72
2023/10/03 10:33:14;;;;;;;14.93;2.92;;;16.40;99.90;;;;;;5068922;28;20106;-72
2023/10/03 10:35:54;;;;;;;14.95;3.60;;;16.30;99.90;;;;;;5069912;28;20423;-72
2023/10/03 10:38:32;;;;;;;12.13;2.95;;;16.30;99.90;;;;;;5070333;28;20380;-72
2023/10/03 10:41:17;;;;;;;15.10;3.35;;;16.20;99.90;;;;;;5068357;28;20568;-71
2023/10/03 10:44:14;;;;;;;9.90;2.90;;;16.20;99.90;;;;;;5065268;28;20027;-72
2023/10/03 10:46:47;;;;;;;11.88;3.00;;;16.20;99.90;;;;;;5068695;28;20028;-72
2023/10/03 10:49:31;;;;;;;13.98;2.95;;;16.10;99.90;;;;;;5068731;28;20029;-72
2023/10/03 10:51:59;;;;;;;11.32;3.15;;;16.00;99.90;;;;;;5067904;28;20016;-72
2023/10/03 10:54:25;;;;;;;12.13;2.92;;;15.90;99.90;;;;;;5070298;28;20028;-71
2023/10/03 10:57:00;;;;;;;11.43;2.90;;;15.90;99.90;;;;;;5059917;28;20028;-72
2023/10/03 10:59:26;;;;;;;;;;;15.90;99.90;;;;;;5070039;28;20032;-72
2023/10/03 11:01:53;;;;;;;10.93;2.85;;;15.80;99.90;;;;;;5069342;28;19912;-72
2023/10/03 11:04:23;;;;;;;16.63;2.85;;;15.80;99.90;;;;;;5069812;28;20008;-71
2023/10/03 11:06:52;;;;;;;15.23;3.30;;;15.80;99.90;;;;;;5069644;28;20525;-73
2023/10/03 11:09:20;;;;;;;10.60;3.30;;;15.80;99.90;;;;;;5070061;28;20398;-73
2023/10/03 11:11:47;;;;;;;16.20;3.22;;;15.80;99.90;;;;;;5070277;28;20484;-72
2023/10/03 11:14:25;;;;;;;13.45;2.85;;;15.70;99.90;;;;;;5070292;28;20032;-72
2023/10/03 11:16:51;;;;;;;11.95;3.00;;;15.70;99.90;;;;;;5068581;28;20033;-72
2023/10/03 11:19:16;;;;;;;15.05;3.33;;;15.60;99.90;;;;;;5069942;28;20471;-72
2023/10/03 11:21:42;;;;;;;15.07;3.08;;;15.60;99.90;;;;;;5069166;28;20043;-72
2023/10/03 11:24:12;;;;;;;11.60;2.95;;;15.70;99.90;;;;;;5084985;28;20036;-72
2023/10/03 11:26:51;;;;;;;14.18;3.10;;;15.70;99.90;;;;;;5065238;28;20029;-72
2023/10/03 11:29:48;;;;;;;12.07;2.78;;;15.90;99.90;;;;;;5071699;28;20543;-72
2023/10/03 11:32:25;;;;;;;14.63;2.90;;;16.00;99.90;;;;;;5074441;28;20095;-71
2023/10/03 11:34:53;;;;;;;11.55;2.90;;;16.00;99.90;;;;;;5072962;28;20028;-72
2023/10/03 11:37:30;;;;;;;11.10;2.72;;;16.20;99.90;;;;;;5072369;28;20107;-71
2023/10/03 11:40:14;;;;;;;13.38;2.85;;;16.30;99.90;;;;;;5070618;28;20104;-71
2023/10/03 11:42:47;;;;;;;14.57;3.05;;;16.40;99.90;;;;;;5070721;28;20068;-71
2023/10/03 11:45:40;;;;;;;13.27;2.55;;;16.40;99.90;;;;;;5074334;28;20032;-71
2023/10/03 11:48:17;;;;;;;12.20;2.78;;;16.40;99.90;;;;;;5066800;28;20040;-71
2023/10/03 11:50:45;;;;;;;10.18;2.72;;;16.30;99.90;;;;;;5070448;28;20028;-71
2023/10/03 11:53:12;;;;;;;9.07;2.55;;;16.20;99.90;;;;;;5072342;28;20174;-72
2023/10/03 11:55:40;;;;;;;14.20;2.67;;;16.10;99.90;;;;;;5073287;28;20093;-72
2023/10/03 11:58:06;;;;;;;11.93;2.95;;;16.10;99.90;;;;;;5073654;28;20410;-72
2023/10/03 12:00:33;;;;;;;12.35;2.67;;;16.00;99.90;;;;;;5072470;28;20028;-72
2023/10/03 12:03:09;;;;;;;16.00;2.95;;;16.00;99.90;;;;;;5073426;28;20036;-72
2023/10/03 12:05:36;;;;;;;10.45;2.45;;;16.00;99.90;;;;;;5086023;28;20072;-72
2023/10/03 12:08:04;;;;;;;10.02;2.50;;;16.00;99.90;;;;;;5073013;28;20028;-71
2023/10/03 12:10:31;;;;;;;13.23;2.60;;;16.00;99.90;;;;;;5073309;28;20024;-71
2023/10/03 12:12:57;;;;;;;15.18;2.65;;;16.00;99.90;;;;;;5073360;28;20024;-72
2023/10/03 12:15:24;;;;;;;9.48;2.35;;;15.80;99.90;;;;;;5073611;28;20488;-72
2023/10/03 12:17:50;;;;;;;9.27;1.90;;;15.60;99.90;;;;;;5073095;28;20414;-72
2023/10/03 12:20:20;;;;;;;8.77;2.25;;;15.40;99.90;;;;;;5073422;28;20034;-72
2023/10/03 12:22:52;;;;;;;10.18;1.98;;;15.40;99.90;;;;;;5070270;28;20032;-72
2023/10/03 12:25:24;;;;;;;11.45;2.78;;;15.40;99.90;;;;;;5073707;28;20020;-71
2023/10/03 12:27:50;;;;;;;7.55;2.30;;;15.40;99.90;;;;;;5072744;28;20655;-71
2023/10/03 12:30:16;;;;;;;7.10;2.13;;;15.50;99.90;;;;;;5073394;28;20012;-71
2023/10/03 12:32:47;;;;;;;6.97;2.40;;;15.50;99.90;;;;;;5071503;28;20055;-71
2023/10/03 12:35:14;;;;;;;10.10;2.58;;;15.70;99.90;;;;;;5072863;28;20536;-71
2023/10/03 12:37:44;;;;;;;11.38;2.35;;;15.80;99.90;;;;;;5070246;28;20023;-71
2023/10/03 12:40:13;;;;;;;9.65;2.40;;;15.80;99.90;;;;;;5071165;28;20555;-71
2023/10/03 12:42:50;;;;;;;8.50;2.33;;;15.80;99.90;;;;;;5073148;28;20085;-71
2023/10/03 12:45:24;;;;;;;11.90;2.60;;;15.90;99.90;;;;;;5072074;28;20016;-71
2023/10/03 12:47:54;;;;;;;10.25;3.03;;;16.00;99.90;;;;;;5071369;28;20529;-71
2023/10/03 12:50:24;;;;;;;10.05;2.45;;;16.00;99.90;;;;;;5071817;28;20032;-71